Cozumel, Mexico

7:12 AM EST on September 05, 2015 (GMT -0500)
APRSWXNET | | Change Station
CLOSE
Current Station
Personal Weather Station
Location: Cozumel,
Elevation: 36 ft
Nearby Weather Stations

Elev 36 ft 20.51 °N, 86.93 °W | Updated 31 minutes ago

Scattered Clouds
Scattered Clouds
79 °F
Feels Like 83 °F
N
2
Wind Variable Wind from ESE
Gusts 4.0 mph

Today
High -- | Low -- °F
--% Chance of Precip.
Yesterday
High -- | Low -- °F
Precip. -- in
6:32 AM 6:59 PM
Waning Gibbous, 49% visible
Pressure 29.98 in
Visibility 7.0 miles
Clouds Few 1500 ft
Scattered Clouds 30000 ft
Heat Index 83 °F
Dew Point 75 °F
Humidity 89%
Rainfall in
Snow Depth Not available.
UV 0 out of 12
Pollen Not available.
Air Quality Not available.
Flu Activity Not available.
METAR MMUN 051141Z 00000KT 7SM FEW015 SCT300 24/24 A2997 RMK SLP150 52009 913 8/508
Pressure 29.98 in
Visibility 7.0 miles
Clouds Few 1500 ft
Scattered Clouds 30000 ft
Heat Index 83 °F
Dew Point 75 °F
Humidity 89%
Rainfall in
Snow Depth Not available.
UV 0 out of 12
Pollen Not available.
Air Quality Not available.
Flu Activity Not available.
METAR MMUN 051141Z 00000KT 7SM FEW015 SCT300 24/24 A2997 RMK SLP150 52009 913 8/508

10-Day Weather Forecast

×

Almanac

Astronomy

Sep. 05, 2015 Rise Set
Actual Time
Civil Twilight
Nautical Twilight
Astronomical Twilight
Moon
Length of Visible Light
Length of Day
Tomorrow will be .
, % of the Moon is Illuminated

Today's Extremes

Country Highs Country Lows

Community

WunderPhotos

Upload Photos

1,852,455 photos uploaded!

WunderBlogs® & News

Nearby

Air Quality

  Air Quality AQ Index Pollutant
Not available.

Snow Depth

Station Depth Elevation

Earthquake Activity

City Distance Mag. Time & Date
Minimum magnitude displayed is 2.5.

Coastal Water Temperatures

Place Temperature

Stations

Nearby Weather Stations

Station Location Temp. Windchill Dew Point Humidity Wind Precip. Elev Updated Type